sensor_id;sensor_type;location;lat;lon;timestamp;P1;durP1;ratioP1;P2;durP2;ratioP2
14603;SDS011;7388;51.078;13.740;2022-09-16T00:00:14;4.97;;;1.77;;
14603;SDS011;7388;51.078;13.740;2022-09-16T00:02:40;1.67;;;1.20;;
14603;SDS011;7388;51.078;13.740;2022-09-16T00:05:06;2.90;;;1.53;;
14603;SDS011;7388;51.078;13.740;2022-09-16T00:07:32;2.85;;;1.38;;
14603;SDS011;7388;51.078;13.740;2022-09-16T00:09:58;2.90;;;1.30;;
14603;SDS011;7388;51.078;13.740;2022-09-16T00:12:25;3.03;;;1.48;;
14603;SDS011;7388;51.078;13.740;2022-09-16T00:14:51;1.67;;;1.25;;
14603;SDS011;7388;51.078;13.740;2022-09-16T00:17:17;2.67;;;2.00;;
14603;SDS011;7388;51.078;13.740;2022-09-16T00:19:43;4.17;;;2.23;;
14603;SDS011;7388;51.078;13.740;2022-09-16T00:22:09;3.87;;;1.70;;
14603;SDS011;7388;51.078;13.740;2022-09-16T00:24:35;1.67;;;1.53;;
14603;SDS011;7388;51.078;13.740;2022-09-16T00:27:00;4.67;;;1.33;;
14603;SDS011;7388;51.078;13.740;2022-09-16T00:29:26;1.77;;;1.07;;
14603;SDS011;7388;51.078;13.740;2022-09-16T00:31:52;2.80;;;1.80;;
14603;SDS011;7388;51.078;13.740;2022-09-16T00:34:18;1.60;;;1.20;;
14603;SDS011;7388;51.078;13.740;2022-09-16T00:36:44;3.50;;;1.30;;
14603;SDS011;7388;51.078;13.740;2022-09-16T00:39:09;4.03;;;1.87;;
14603;SDS011;7388;51.078;13.740;2022-09-16T00:41:35;2.13;;;1.93;;
14603;SDS011;7388;51.078;13.740;2022-09-16T00:44:05;2.60;;;1.60;;
14603;SDS011;7388;51.078;13.740;2022-09-16T00:46:51;2.00;;;1.40;;
14603;SDS011;7388;51.078;13.740;2022-09-16T00:49:26;3.67;;;1.20;;
14603;SDS011;7388;51.078;13.740;2022-09-16T00:51:56;2.75;;;1.35;;
14603;SDS011;7388;51.078;13.740;2022-09-16T00:54:26;1.98;;;1.60;;
14603;SDS011;7388;51.078;13.740;2022-09-16T00:56:54;2.15;;;1.65;;
14603;SDS011;7388;51.078;13.740;2022-09-16T00:59:26;3.60;;;2.25;;
14603;SDS011;7388;51.078;13.740;2022-09-16T01:01:59;3.95;;;3.40;;
14603;SDS011;7388;51.078;13.740;2022-09-16T01:04:31;3.80;;;1.73;;
14603;SDS011;7388;51.078;13.740;2022-09-16T01:07:01;4.40;;;1.75;;
14603;SDS011;7388;51.078;13.740;2022-09-16T01:09:27;2.35;;;1.42;;
14603;SDS011;7388;51.078;13.740;2022-09-16T01:11:54;2.60;;;1.60;;
14603;SDS011;7388;51.078;13.740;2022-09-16T01:14:20;2.50;;;1.70;;
14603;SDS011;7388;51.078;13.740;2022-09-16T01:17:16;4.05;;;1.60;;
14603;SDS011;7388;51.078;13.740;2022-09-16T01:28:56;3.40;;;2.17;;
14603;SDS011;7388;51.078;13.740;2022-09-16T01:33:40;4.13;;;1.85;;
14603;SDS011;7388;51.078;13.740;2022-09-16T01:36:27;2.90;;;1.25;;
14603;SDS011;7388;51.078;13.740;2022-09-16T01:55:34;2.70;;;1.67;;
14603;SDS011;7388;51.078;13.740;2022-09-16T02:01:05;7.47;;;2.35;;
14603;SDS011;7388;51.078;13.740;2022-09-16T02:03:37;2.00;;;1.65;;
14603;SDS011;7388;51.078;13.740;2022-09-16T02:06:06;2.92;;;1.55;;
14603;SDS011;7388;51.078;13.740;2022-09-16T02:08:42;4.35;;;1.35;;
14603;SDS011;7388;51.078;13.740;2022-09-16T02:11:15;2.35;;;1.40;;
14603;SDS011;7388;51.078;13.740;2022-09-16T02:13:44;5.82;;;1.45;;
14603;SDS011;7388;51.078;13.740;2022-09-16T02:16:39;6.15;;;1.27;;
14603;SDS011;7388;51.078;13.740;2022-09-16T02:19:12;2.15;;;1.50;;
14603;SDS011;7388;51.078;13.740;2022-09-16T02:21:43;2.83;;;1.52;;
14603;SDS011;7388;51.078;13.740;2022-09-16T02:24:12;2.17;;;1.42;;
14603;SDS011;7388;51.078;13.740;2022-09-16T02:26:45;3.20;;;1.60;;
14603;SDS011;7388;51.078;13.740;2022-09-16T02:29:21;4.05;;;1.38;;
14603;SDS011;7388;51.078;13.740;2022-09-16T02:31:50;1.95;;;1.30;;
14603;SDS011;7388;51.078;13.740;2022-09-16T02:34:25;3.50;;;1.25;;
14603;SDS011;7388;51.078;13.740;2022-09-16T02:37:00;3.20;;;1.33;;
14603;SDS011;7388;51.078;13.740;2022-09-16T02:39:36;3.60;;;1.20;;
14603;SDS011;7388;51.078;13.740;2022-09-16T02:42:04;3.15;;;1.63;;
14603;SDS011;7388;51.078;13.740;2022-09-16T02:44:31;1.60;;;1.20;;
14603;SDS011;7388;51.078;13.740;2022-09-16T02:47:20;4.05;;;1.48;;
14603;SDS011;7388;51.078;13.740;2022-09-16T02:53:00;2.47;;;1.40;;
14603;SDS011;7388;51.078;13.740;2022-09-16T02:57:57;3.70;;;3.13;;
14603;SDS011;7388;51.078;13.740;2022-09-16T03:00:23;1.83;;;1.23;;
14603;SDS011;7388;51.078;13.740;2022-09-16T03:02:49;2.90;;;1.42;;
14603;SDS011;7388;51.078;13.740;2022-09-16T03:05:18;2.25;;;1.20;;
14603;SDS011;7388;51.078;13.740;2022-09-16T03:07:43;1.93;;;1.20;;
14603;SDS011;7388;51.078;13.740;2022-09-16T03:10:10;2.57;;;1.50;;
14603;SDS011;7388;51.078;13.740;2022-09-16T03:18:29;9.32;;;1.50;;
14603;SDS011;7388;51.078;13.740;2022-09-16T03:24:41;4.10;;;1.20;;
14603;SDS011;7388;51.078;13.740;2022-09-16T03:27:11;2.97;;;1.65;;
14603;SDS011;7388;51.078;13.740;2022-09-16T03:29:49;5.63;;;1.50;;
14603;SDS011;7388;51.078;13.740;2022-09-16T03:32:26;2.30;;;1.77;;
14603;SDS011;7388;51.078;13.740;2022-09-16T03:37:33;5.75;;;3.05;;
14603;SDS011;7388;51.078;13.740;2022-09-16T03:40:03;2.95;;;1.30;;
14603;SDS011;7388;51.078;13.740;2022-09-16T03:42:33;7.28;;;2.05;;
14603;SDS011;7388;51.078;13.740;2022-09-16T03:45:02;3.17;;;1.45;;
14603;SDS011;7388;51.078;13.740;2022-09-16T03:47:28;3.57;;;2.10;;
14603;SDS011;7388;51.078;13.740;2022-09-16T03:49:53;3.93;;;2.10;;
14603;SDS011;7388;51.078;13.740;2022-09-16T03:52:19;6.77;;;2.73;;
14603;SDS011;7388;51.078;13.740;2022-09-16T03:54:45;5.90;;;2.03;;
14603;SDS011;7388;51.078;13.740;2022-09-16T03:57:11;3.97;;;1.77;;
14603;SDS011;7388;51.078;13.740;2022-09-16T03:59:37;2.57;;;1.70;;
14603;SDS011;7388;51.078;13.740;2022-09-16T04:02:02;3.63;;;2.50;;
14603;SDS011;7388;51.078;13.740;2022-09-16T04:04:28;2.90;;;1.93;;
14603;SDS011;7388;51.078;13.740;2022-09-16T04:06:54;4.90;;;2.77;;
14603;SDS011;7388;51.078;13.740;2022-09-16T04:09:20;5.07;;;2.95;;
14603;SDS011;7388;51.078;13.740;2022-09-16T04:11:46;2.63;;;2.07;;
14603;SDS011;7388;51.078;13.740;2022-09-16T04:14:12;7.27;;;2.67;;
14603;SDS011;7388;51.078;13.740;2022-09-16T04:16:38;5.03;;;1.70;;
14603;SDS011;7388;51.078;13.740;2022-09-16T04:19:04;3.53;;;2.40;;
14603;SDS011;7388;51.078;13.740;2022-09-16T04:21:31;3.80;;;1.67;;
14603;SDS011;7388;51.078;13.740;2022-09-16T04:23:57;4.40;;;1.25;;
14603;SDS011;7388;51.078;13.740;2022-09-16T04:26:23;3.30;;;2.00;;
14603;SDS011;7388;51.078;13.740;2022-09-16T04:28:51;3.30;;;1.80;;
14603;SDS011;7388;51.078;13.740;2022-09-16T04:31:18;6.15;;;1.90;;
14603;SDS011;7388;51.078;13.740;2022-09-16T04:33:44;3.67;;;2.38;;
14603;SDS011;7388;51.078;13.740;2022-09-16T04:36:11;7.77;;;2.17;;
14603;SDS011;7388;51.078;13.740;2022-09-16T04:38:42;2.72;;;1.90;;
14603;SDS011;7388;51.078;13.740;2022-09-16T04:41:19;3.20;;;1.67;;
14603;SDS011;7388;51.078;13.740;2022-09-16T04:43:50;3.17;;;2.33;;
14603;SDS011;7388;51.078;13.740;2022-09-16T04:46:21;4.00;;;1.80;;
14603;SDS011;7388;51.078;13.740;2022-09-16T04:48:48;2.22;;;1.40;;
14603;SDS011;7388;51.078;13.740;2022-09-16T04:51:15;3.15;;;1.63;;
14603;SDS011;7388;51.078;13.740;2022-09-16T04:53:41;4.30;;;1.75;;
14603;SDS011;7388;51.078;13.740;2022-09-16T04:56:15;1.83;;;1.38;;
14603;SDS011;7388;51.078;13.740;2022-09-16T04:58:42;6.55;;;3.28;;
14603;SDS011;7388;51.078;13.740;2022-09-16T05:01:10;2.58;;;2.08;;
14603;SDS011;7388;51.078;13.740;2022-09-16T05:03:41;5.35;;;2.00;;
14603;SDS011;7388;51.078;13.740;2022-09-16T05:06:09;4.38;;;2.28;;
14603;SDS011;7388;51.078;13.740;2022-09-16T05:08:37;4.13;;;1.60;;
14603;SDS011;7388;51.078;13.740;2022-09-16T05:11:03;3.22;;;1.73;;
14603;SDS011;7388;51.078;13.740;2022-09-16T05:13:30;5.55;;;2.20;;
14603;SDS011;7388;51.078;13.740;2022-09-16T05:16:00;4.40;;;2.13;;
14603;SDS011;7388;51.078;13.740;2022-09-16T05:18:29;3.58;;;1.77;;
14603;SDS011;7388;51.078;13.740;2022-09-16T05:20:59;3.20;;;1.63;;
14603;SDS011;7388;51.078;13.740;2022-09-16T05:23:25;4.40;;;1.58;;
14603;SDS011;7388;51.078;13.740;2022-09-16T05:25:51;2.40;;;1.67;;
14603;SDS011;7388;51.078;13.740;2022-09-16T05:28:18;4.43;;;1.80;;
14603;SDS011;7388;51.078;13.740;2022-09-16T05:30:44;5.00;;;2.00;;
14603;SDS011;7388;51.078;13.740;2022-09-16T05:33:09;3.67;;;1.87;;
14603;SDS011;7388;51.078;13.740;2022-09-16T05:35:35;3.67;;;1.40;;
14603;SDS011;7388;51.078;13.740;2022-09-16T05:38:01;2.07;;;1.87;;
14603;SDS011;7388;51.078;13.740;2022-09-16T05:40:27;2.83;;;1.77;;
14603;SDS011;7388;51.078;13.740;2022-09-16T05:42:53;2.00;;;1.65;;
14603;SDS011;7388;51.078;13.740;2022-09-16T05:45:19;4.63;;;1.65;;
14603;SDS011;7388;51.078;13.740;2022-09-16T05:47:48;3.85;;;1.67;;
14603;SDS011;7388;51.078;13.740;2022-09-16T05:50:14;1.92;;;1.50;;
14603;SDS011;7388;51.078;13.740;2022-09-16T05:52:40;2.00;;;1.50;;
14603;SDS011;7388;51.078;13.740;2022-09-16T05:55:06;3.20;;;1.73;;
14603;SDS011;7388;51.078;13.740;2022-09-16T05:57:32;5.90;;;2.00;;
14603;SDS011;7388;51.078;13.740;2022-09-16T05:59:58;3.95;;;1.98;;
14603;SDS011;7388;51.078;13.740;2022-09-16T06:02:24;4.30;;;2.10;;
14603;SDS011;7388;51.078;13.740;2022-09-16T06:04:50;6.37;;;1.60;;
14603;SDS011;7388;51.078;13.740;2022-09-16T06:07:17;3.15;;;1.85;;
14603;SDS011;7388;51.078;13.740;2022-09-16T06:09:43;4.00;;;1.53;;
14603;SDS011;7388;51.078;13.740;2022-09-16T06:12:09;2.97;;;1.67;;
14603;SDS011;7388;51.078;13.740;2022-09-16T06:14:35;2.28;;;1.63;;
14603;SDS011;7388;51.078;13.740;2022-09-16T06:17:01;8.70;;;2.40;;
14603;SDS011;7388;51.078;13.740;2022-09-16T06:19:26;3.15;;;2.00;;
14603;SDS011;7388;51.078;13.740;2022-09-16T06:21:52;1.87;;;1.50;;
14603;SDS011;7388;51.078;13.740;2022-09-16T06:24:19;4.87;;;1.90;;
14603;SDS011;7388;51.078;13.740;2022-09-16T06:26:46;7.57;;;1.88;;
14603;SDS011;7388;51.078;13.740;2022-09-16T06:29:13;3.45;;;1.95;;
14603;SDS011;7388;51.078;13.740;2022-09-16T06:31:40;3.50;;;2.60;;
14603;SDS011;7388;51.078;13.740;2022-09-16T06:34:07;4.65;;;2.75;;
14603;SDS011;7388;51.078;13.740;2022-09-16T06:36:38;3.13;;;2.38;;
14603;SDS011;7388;51.078;13.740;2022-09-16T06:39:04;6.93;;;3.10;;
14603;SDS011;7388;51.078;13.740;2022-09-16T06:41:31;2.72;;;1.88;;
14603;SDS011;7388;51.078;13.740;2022-09-16T06:43:58;5.25;;;2.80;;
14603;SDS011;7388;51.078;13.740;2022-09-16T06:46:25;6.43;;;2.60;;
14603;SDS011;7388;51.078;13.740;2022-09-16T06:48:52;5.78;;;2.30;;
14603;SDS011;7388;51.078;13.740;2022-09-16T06:51:27;5.80;;;2.35;;
14603;SDS011;7388;51.078;13.740;2022-09-16T06:53:57;3.90;;;1.95;;
14603;SDS011;7388;51.078;13.740;2022-09-16T06:56:25;2.40;;;1.73;;
14603;SDS011;7388;51.078;13.740;2022-09-16T06:58:51;1.63;;;1.23;;
14603;SDS011;7388;51.078;13.740;2022-09-16T07:01:20;4.65;;;2.53;;
14603;SDS011;7388;51.078;13.740;2022-09-16T07:03:53;3.05;;;2.05;;
14603;SDS011;7388;51.078;13.740;2022-09-16T07:06:21;2.67;;;1.50;;
14603;SDS011;7388;51.078;13.740;2022-09-16T07:08:48;10.15;;;1.80;;
14603;SDS011;7388;51.078;13.740;2022-09-16T07:11:17;2.77;;;2.53;;
14603;SDS011;7388;51.078;13.740;2022-09-16T07:13:44;2.65;;;1.90;;
14603;SDS011;7388;51.078;13.740;2022-09-16T07:16:12;6.00;;;2.15;;
14603;SDS011;7388;51.078;13.740;2022-09-16T07:18:40;2.72;;;1.83;;
14603;SDS011;7388;51.078;13.740;2022-09-16T07:21:17;2.40;;;1.75;;
14603;SDS011;7388;51.078;13.740;2022-09-16T07:23:45;5.55;;;2.22;;
14603;SDS011;7388;51.078;13.740;2022-09-16T07:28:38;3.55;;;1.75;;
14603;SDS011;7388;51.078;13.740;2022-09-16T07:31:06;1.50;;;1.30;;
14603;SDS011;7388;51.078;13.740;2022-09-16T07:33:37;3.47;;;1.75;;
14603;SDS011;7388;51.078;13.740;2022-09-16T07:36:05;2.55;;;1.70;;
14603;SDS011;7388;51.078;13.740;2022-09-16T07:38:32;3.60;;;1.75;;
14603;SDS011;7388;51.078;13.740;2022-09-16T07:41:04;7.15;;;1.80;;
14603;SDS011;7388;51.078;13.740;2022-09-16T07:43:31;2.47;;;1.85;;
14603;SDS011;7388;51.078;13.740;2022-09-16T07:45:57;5.30;;;1.87;;
14603;SDS011;7388;51.078;13.740;2022-09-16T07:48:23;4.25;;;2.05;;
14603;SDS011;7388;51.078;13.740;2022-09-16T07:50:57;4.05;;;1.73;;
14603;SDS011;7388;51.078;13.740;2022-09-16T07:53:25;5.72;;;2.35;;
14603;SDS011;7388;51.078;13.740;2022-09-16T07:55:53;5.07;;;1.83;;
14603;SDS011;7388;51.078;13.740;2022-09-16T07:58:28;4.38;;;2.60;;
14603;SDS011;7388;51.078;13.740;2022-09-16T08:00:54;3.17;;;1.40;;
14603;SDS011;7388;51.078;13.740;2022-09-16T08:03:20;2.13;;;1.43;;
14603;SDS011;7388;51.078;13.740;2022-09-16T08:05:45;2.90;;;1.47;;
14603;SDS011;7388;51.078;13.740;2022-09-16T08:08:11;3.80;;;1.93;;
14603;SDS011;7388;51.078;13.740;2022-09-16T08:10:37;2.30;;;1.70;;
14603;SDS011;7388;51.078;13.740;2022-09-16T08:13:03;2.57;;;1.37;;
14603;SDS011;7388;51.078;13.740;2022-09-16T08:15:30;2.60;;;1.63;;
14603;SDS011;7388;51.078;13.740;2022-09-16T08:17:56;3.28;;;1.98;;
14603;SDS011;7388;51.078;13.740;2022-09-16T08:20:22;3.33;;;1.60;;
14603;SDS011;7388;51.078;13.740;2022-09-16T08:22:49;9.63;;;1.88;;
14603;SDS011;7388;51.078;13.740;2022-09-16T08:25:15;6.75;;;1.90;;
14603;SDS011;7388;51.078;13.740;2022-09-16T08:27:41;2.00;;;1.20;;
14603;SDS011;7388;51.078;13.740;2022-09-16T08:30:07;3.20;;;1.43;;
14603;SDS011;7388;51.078;13.740;2022-09-16T08:32:33;5.20;;;1.73;;
14603;SDS011;7388;51.078;13.740;2022-09-16T08:34:59;2.03;;;1.20;;
14603;SDS011;7388;51.078;13.740;2022-09-16T08:37:25;9.70;;;1.50;;
14603;SDS011;7388;51.078;13.740;2022-09-16T08:39:51;3.13;;;1.20;;
14603;SDS011;7388;51.078;13.740;2022-09-16T08:47:51;2.85;;;1.42;;
14603;SDS011;7388;51.078;13.740;2022-09-16T08:50:40;2.50;;;0.90;;
14603;SDS011;7388;51.078;13.740;2022-09-16T08:53:26;2.95;;;1.25;;
14603;SDS011;7388;51.078;13.740;2022-09-16T08:56:01;2.90;;;1.58;;
14603;SDS011;7388;51.078;13.740;2022-09-16T08:58:39;5.28;;;1.55;;
14603;SDS011;7388;51.078;13.740;2022-09-16T09:01:17;2.00;;;0.98;;
14603;SDS011;7388;51.078;13.740;2022-09-16T09:03:48;2.72;;;1.23;;
14603;SDS011;7388;51.078;13.740;2022-09-16T09:12:09;2.25;;;1.30;;
14603;SDS011;7388;51.078;13.740;2022-09-16T09:17:50;3.20;;;0.80;;
14603;SDS011;7388;51.078;13.740;2022-09-16T09:23:26;1.75;;;1.10;;
14603;SDS011;7388;51.078;13.740;2022-09-16T09:26:04;2.03;;;0.77;;
14603;SDS011;7388;51.078;13.740;2022-09-16T09:28:55;1.85;;;0.90;;
14603;SDS011;7388;51.078;13.740;2022-09-16T09:31:38;7.57;;;1.70;;
14603;SDS011;7388;51.078;13.740;2022-09-16T09:43:38;1.70;;;1.60;;
14603;SDS011;7388;51.078;13.740;2022-09-16T09:48:49;3.35;;;1.73;;
14603;SDS011;7388;51.078;13.740;2022-09-16T09:54:34;5.53;;;1.65;;
14603;SDS011;7388;51.078;13.740;2022-09-16T10:00:14;3.25;;;1.42;;
14603;SDS011;7388;51.078;13.740;2022-09-16T10:02:43;2.25;;;0.93;;
14603;SDS011;7388;51.078;13.740;2022-09-16T10:07:54;2.03;;;0.80;;
14603;SDS011;7388;51.078;13.740;2022-09-16T10:10:23;2.85;;;1.00;;
14603;SDS011;7388;51.078;13.740;2022-09-16T10:12:50;2.13;;;1.23;;
14603;SDS011;7388;51.078;13.740;2022-09-16T10:15:23;1.40;;;0.90;;
14603;SDS011;7388;51.078;13.740;2022-09-16T10:17:52;2.38;;;0.95;;
14603;SDS011;7388;51.078;13.740;2022-09-16T10:23:05;2.90;;;1.13;;
14603;SDS011;7388;51.078;13.740;2022-09-16T10:25:37;1.90;;;1.00;;
14603;SDS011;7388;51.078;13.740;2022-09-16T10:28:05;2.97;;;1.20;;
14603;SDS011;7388;51.078;13.740;2022-09-16T10:30:52;1.90;;;1.00;;
14603;SDS011;7388;51.078;13.740;2022-09-16T10:35:54;1.42;;;0.95;;
14603;SDS011;7388;51.078;13.740;2022-09-16T10:38:40;2.22;;;1.40;;
14603;SDS011;7388;51.078;13.740;2022-09-16T10:46:18;6.88;;;1.45;;
14603;SDS011;7388;51.078;13.740;2022-09-16T10:48:45;2.05;;;1.13;;
14603;SDS011;7388;51.078;13.740;2022-09-16T10:51:19;3.90;;;1.70;;
14603;SDS011;7388;51.078;13.740;2022-09-16T10:53:54;2.38;;;1.50;;
14603;SDS011;7388;51.078;13.740;2022-09-16T10:56:25;1.73;;;1.35;;
14603;SDS011;7388;51.078;13.740;2022-09-16T10:59:09;3.75;;;1.50;;
14603;SDS011;7388;51.078;13.740;2022-09-16T11:01:43;3.65;;;1.55;;
14603;SDS011;7388;51.078;13.740;2022-09-16T11:09:42;6.85;;;1.13;;
14603;SDS011;7388;51.078;13.740;2022-09-16T11:23:59;2.70;;;1.50;;
14603;SDS011;7388;51.078;13.740;2022-09-16T11:32:04;2.20;;;1.00;;
14603;SDS011;7388;51.078;13.740;2022-09-16T11:34:41;1.80;;;1.55;;
14603;SDS011;7388;51.078;13.740;2022-09-16T11:40:30;2.35;;;1.38;;
14603;SDS011;7388;51.078;13.740;2022-09-16T11:45:34;3.05;;;2.58;;
14603;SDS011;7388;51.078;13.740;2022-09-16T11:56:44;1.88;;;1.10;;
14603;SDS011;7388;51.078;13.740;2022-09-16T12:04:58;2.10;;;1.25;;
14603;SDS011;7388;51.078;13.740;2022-09-16T12:08:23;3.10;;;1.50;;
14603;SDS011;7388;51.078;13.740;2022-09-16T12:10:47;4.25;;;1.33;;
14603;SDS011;7388;51.078;13.740;2022-09-16T12:13:29;2.22;;;1.48;;
14603;SDS011;7388;51.078;13.740;2022-09-16T12:16:01;2.40;;;0.98;;
14603;SDS011;7388;51.078;13.740;2022-09-16T12:18:41;2.33;;;1.63;;
14603;SDS011;7388;51.078;13.740;2022-09-16T12:21:22;2.55;;;1.80;;
14603;SDS011;7388;51.078;13.740;2022-09-16T12:24:00;1.98;;;1.17;;
14603;SDS011;7388;51.078;13.740;2022-09-16T12:26:40;1.67;;;1.00;;
14603;SDS011;7388;51.078;13.740;2022-09-16T12:31:58;2.60;;;1.47;;
14603;SDS011;7388;51.078;13.740;2022-09-16T12:34:33;1.30;;;0.70;;
14603;SDS011;7388;51.078;13.740;2022-09-16T12:39:58;4.43;;;1.10;;
14603;SDS011;7388;51.078;13.740;2022-09-16T13:00:12;4.10;;;1.17;;
14603;SDS011;7388;51.078;13.740;2022-09-16T13:02:50;1.73;;;1.03;;
14603;SDS011;7388;51.078;13.740;2022-09-16T13:05:21;2.13;;;1.40;;
14603;SDS011;7388;51.078;13.740;2022-09-16T13:07:52;2.70;;;1.00;;
14603;SDS011;7388;51.078;13.740;2022-09-16T13:10:23;1.37;;;1.23;;
14603;SDS011;7388;51.078;13.740;2022-09-16T13:12:54;2.80;;;1.17;;
14603;SDS011;7388;51.078;13.740;2022-09-16T13:15:24;3.63;;;1.40;;
14603;SDS011;7388;51.078;13.740;2022-09-16T13:18:07;1.70;;;1.10;;
14603;SDS011;7388;51.078;13.740;2022-09-16T13:20:47;3.20;;;1.40;;
14603;SDS011;7388;51.078;13.740;2022-09-16T13:23:17;1.83;;;1.33;;
14603;SDS011;7388;51.078;13.740;2022-09-16T13:28:33;2.20;;;1.70;;
14603;SDS011;7388;51.078;13.740;2022-09-16T13:38:42;3.83;;;1.40;;
14603;SDS011;7388;51.078;13.740;2022-09-16T13:41:10;1.73;;;1.00;;
14603;SDS011;7388;51.078;13.740;2022-09-16T13:46:07;2.03;;;1.00;;
14603;SDS011;7388;51.078;13.740;2022-09-16T13:48:40;2.67;;;1.37;;
14603;SDS011;7388;51.078;13.740;2022-09-16T13:51:15;1.60;;;0.90;;
14603;SDS011;7388;51.078;13.740;2022-09-16T13:53:46;2.80;;;1.30;;
14603;SDS011;7388;51.078;13.740;2022-09-16T14:01:42;1.30;;;0.90;;
14603;SDS011;7388;51.078;13.740;2022-09-16T14:04:45;1.40;;;0.87;;
14603;SDS011;7388;51.078;13.740;2022-09-16T14:12:48;1.50;;;1.10;;
14603;SDS011;7388;51.078;13.740;2022-09-16T14:15:19;2.17;;;1.10;;
14603;SDS011;7388;51.078;13.740;2022-09-16T14:17:46;2.20;;;1.13;;
14603;SDS011;7388;51.078;13.740;2022-09-16T14:20:15;4.50;;;1.27;;
14603;SDS011;7388;51.078;13.740;2022-09-16T14:22:45;8.50;;;0.90;;
14603;SDS011;7388;51.078;13.740;2022-09-16T14:25:24;2.00;;;1.00;;
14603;SDS011;7388;51.078;13.740;2022-09-16T14:30:44;1.80;;;1.13;;
14603;SDS011;7388;51.078;13.740;2022-09-16T14:33:36;2.13;;;1.20;;
14603;SDS011;7388;51.078;13.740;2022-09-16T14:36:25;1.27;;;0.80;;
14603;SDS011;7388;51.078;13.740;2022-09-16T14:38:55;2.87;;;1.20;;
14603;SDS011;7388;51.078;13.740;2022-09-16T14:41:30;1.93;;;1.00;;
14603;SDS011;7388;51.078;13.740;2022-09-16T14:44:24;1.97;;;0.80;;
14603;SDS011;7388;51.078;13.740;2022-09-16T14:47:16;1.63;;;0.77;;
14603;SDS011;7388;51.078;13.740;2022-09-16T14:50:07;1.10;;;0.57;;
14603;SDS011;7388;51.078;13.740;2022-09-16T14:52:37;1.40;;;0.60;;
14603;SDS011;7388;51.078;13.740;2022-09-16T14:55:22;2.53;;;0.93;;
14603;SDS011;7388;51.078;13.740;2022-09-16T14:57:50;1.67;;;0.70;;
14603;SDS011;7388;51.078;13.740;2022-09-16T15:00:16;1.80;;;0.73;;
14603;SDS011;7388;51.078;13.740;2022-09-16T15:06:02;2.40;;;0.83;;
14603;SDS011;7388;51.078;13.740;2022-09-16T15:08:44;1.17;;;0.83;;
14603;SDS011;7388;51.078;13.740;2022-09-16T15:11:20;1.40;;;1.00;;
14603;SDS011;7388;51.078;13.740;2022-09-16T15:13:50;1.40;;;0.50;;
14603;SDS011;7388;51.078;13.740;2022-09-16T15:16:17;1.40;;;0.60;;
14603;SDS011;7388;51.078;13.740;2022-09-16T15:18:53;1.67;;;0.60;;
14603;SDS011;7388;51.078;13.740;2022-09-16T15:21:24;2.30;;;0.80;;
14603;SDS011;7388;51.078;13.740;2022-09-16T15:23:55;1.80;;;0.83;;
14603;SDS011;7388;51.078;13.740;2022-09-16T15:26:39;2.07;;;1.40;;
14603;SDS011;7388;51.078;13.740;2022-09-16T15:29:12;1.20;;;0.60;;
14603;SDS011;7388;51.078;13.740;2022-09-16T15:32:14;1.47;;;0.83;;
14603;SDS011;7388;51.078;13.740;2022-09-16T15:34:45;2.13;;;1.17;;
14603;SDS011;7388;51.078;13.740;2022-09-16T15:37:27;2.50;;;0.90;;
14603;SDS011;7388;51.078;13.740;2022-09-16T15:39:55;2.30;;;1.20;;
14603;SDS011;7388;51.078;13.740;2022-09-16T15:42:44;1.73;;;0.83;;
14603;SDS011;7388;51.078;13.740;2022-09-16T15:45:13;2.70;;;0.90;;
14603;SDS011;7388;51.078;13.740;2022-09-16T15:50:42;2.57;;;0.87;;
14603;SDS011;7388;51.078;13.740;2022-09-16T16:01:05;2.40;;;1.37;;
14603;SDS011;7388;51.078;13.740;2022-09-16T16:06:14;1.55;;;1.23;;
14603;SDS011;7388;51.078;13.740;2022-09-16T16:08:48;2.38;;;1.08;;
14603;SDS011;7388;51.078;13.740;2022-09-16T16:11:16;2.25;;;1.00;;
14603;SDS011;7388;51.078;13.740;2022-09-16T16:13:43;2.60;;;1.13;;
14603;SDS011;7388;51.078;13.740;2022-09-16T16:16:09;1.75;;;1.15;;
14603;SDS011;7388;51.078;13.740;2022-09-16T16:18:37;1.65;;;1.00;;
14603;SDS011;7388;51.078;13.740;2022-09-16T16:21:07;3.35;;;2.92;;
14603;SDS011;7388;51.078;13.740;2022-09-16T16:23:34;1.90;;;1.75;;
14603;SDS011;7388;51.078;13.740;2022-09-16T16:26:04;2.45;;;1.20;;
14603;SDS011;7388;51.078;13.740;2022-09-16T16:28:31;2.53;;;1.25;;
14603;SDS011;7388;51.078;13.740;2022-09-16T16:31:13;2.25;;;1.50;;
14603;SDS011;7388;51.078;13.740;2022-09-16T16:33:43;4.30;;;1.80;;
14603;SDS011;7388;51.078;13.740;2022-09-16T16:36:15;4.20;;;2.20;;
14603;SDS011;7388;51.078;13.740;2022-09-16T16:38:41;4.05;;;3.20;;
14603;SDS011;7388;51.078;13.740;2022-09-16T16:41:09;3.15;;;2.50;;
14603;SDS011;7388;51.078;13.740;2022-09-16T16:43:36;8.38;;;7.68;;
14603;SDS011;7388;51.078;13.740;2022-09-16T16:46:02;4.40;;;4.05;;
14603;SDS011;7388;51.078;13.740;2022-09-16T16:48:28;4.18;;;3.13;;
14603;SDS011;7388;51.078;13.740;2022-09-16T16:50:55;3.03;;;2.75;;
14603;SDS011;7388;51.078;13.740;2022-09-16T16:53:21;3.42;;;2.65;;
14603;SDS011;7388;51.078;13.740;2022-09-16T16:55:47;3.93;;;3.30;;
14603;SDS011;7388;51.078;13.740;2022-09-16T16:58:13;3.50;;;2.60;;
14603;SDS011;7388;51.078;13.740;2022-09-16T17:00:38;3.93;;;1.93;;
14603;SDS011;7388;51.078;13.740;2022-09-16T17:03:04;4.90;;;3.10;;
14603;SDS011;7388;51.078;13.740;2022-09-16T17:05:30;3.70;;;3.30;;
14603;SDS011;7388;51.078;13.740;2022-09-16T17:07:56;2.87;;;2.63;;
14603;SDS011;7388;51.078;13.740;2022-09-16T17:10:21;4.63;;;3.20;;
14603;SDS011;7388;51.078;13.740;2022-09-16T17:12:47;37.00;;;22.73;;
14603;SDS011;7388;51.078;13.740;2022-09-16T17:15:13;40.30;;;25.20;;
14603;SDS011;7388;51.078;13.740;2022-09-16T17:17:39;10.10;;;7.00;;
14603;SDS011;7388;51.078;13.740;2022-09-16T17:20:05;12.67;;;8.63;;
14603;SDS011;7388;51.078;13.740;2022-09-16T17:22:31;9.23;;;5.45;;
14603;SDS011;7388;51.078;13.740;2022-09-16T17:24:57;7.13;;;5.10;;
14603;SDS011;7388;51.078;13.740;2022-09-16T17:27:22;5.80;;;3.00;;
14603;SDS011;7388;51.078;13.740;2022-09-16T17:29:51;6.03;;;2.90;;
14603;SDS011;7388;51.078;13.740;2022-09-16T17:32:17;4.57;;;2.40;;
14603;SDS011;7388;51.078;13.740;2022-09-16T17:34:43;4.88;;;2.78;;
14603;SDS011;7388;51.078;13.740;2022-09-16T17:37:08;3.37;;;2.13;;
14603;SDS011;7388;51.078;13.740;2022-09-16T17:39:34;5.50;;;2.37;;
14603;SDS011;7388;51.078;13.740;2022-09-16T17:42:01;5.60;;;1.75;;
14603;SDS011;7388;51.078;13.740;2022-09-16T17:44:27;3.10;;;2.53;;
14603;SDS011;7388;51.078;13.740;2022-09-16T17:46:53;5.33;;;2.30;;
14603;SDS011;7388;51.078;13.740;2022-09-16T17:49:20;3.17;;;2.20;;
14603;SDS011;7388;51.078;13.740;2022-09-16T17:51:48;2.50;;;1.90;;
14603;SDS011;7388;51.078;13.740;2022-09-16T17:54:14;2.40;;;1.88;;
14603;SDS011;7388;51.078;13.740;2022-09-16T17:56:41;3.25;;;1.88;;
14603;SDS011;7388;51.078;13.740;2022-09-16T17:59:07;2.80;;;1.90;;
14603;SDS011;7388;51.078;13.740;2022-09-16T18:01:34;3.15;;;2.20;;
14603;SDS011;7388;51.078;13.740;2022-09-16T18:04:00;3.00;;;1.80;;
14603;SDS011;7388;51.078;13.740;2022-09-16T18:06:29;2.83;;;2.40;;
14603;SDS011;7388;51.078;13.740;2022-09-16T18:08:59;3.95;;;2.22;;
14603;SDS011;7388;51.078;13.740;2022-09-16T18:11:27;3.38;;;2.60;;
14603;SDS011;7388;51.078;13.740;2022-09-16T18:13:56;11.33;;;3.20;;
14603;SDS011;7388;51.078;13.740;2022-09-16T18:16:24;3.65;;;2.60;;
14603;SDS011;7388;51.078;13.740;2022-09-16T18:18:51;3.88;;;3.05;;
14603;SDS011;7388;51.078;13.740;2022-09-16T18:21:18;3.88;;;2.70;;
14603;SDS011;7388;51.078;13.740;2022-09-16T18:23:45;2.60;;;2.25;;
14603;SDS011;7388;51.078;13.740;2022-09-16T18:26:13;3.63;;;3.25;;
14603;SDS011;7388;51.078;13.740;2022-09-16T18:28:41;4.65;;;3.00;;
14603;SDS011;7388;51.078;13.740;2022-09-16T18:31:14;5.47;;;3.42;;
14603;SDS011;7388;51.078;13.740;2022-09-16T18:33:42;3.30;;;3.03;;
14603;SDS011;7388;51.078;13.740;2022-09-16T18:36:12;4.05;;;2.90;;